sensor_id;sensor_type;location;lat;lon;timestamp;pressure;altitude;pressure_sealevel;temperature;humidity
44044;BME280;29709;52.396;16.796;2023-05-23T00:01:33;101516.70;;;17.76;47.12
44044;BME280;29709;52.396;16.796;2023-05-23T00:04:49;101515.84;;;17.75;46.08
44044;BME280;29709;52.396;16.796;2023-05-23T00:08:04;101514.01;;;17.68;47.05
44044;BME280;29709;52.396;16.796;2023-05-23T00:11:17;101517.20;;;17.65;46.64
44044;BME280;29709;52.396;16.796;2023-05-23T00:14:35;101504.48;;;17.55;46.93
44044;BME280;29709;52.396;16.796;2023-05-23T00:17:49;101503.53;;;17.48;47.84
44044;BME280;29709;52.396;16.796;2023-05-23T00:21:02;101503.08;;;17.45;47.03
44044;BME280;29709;52.396;16.796;2023-05-23T00:24:16;101506.05;;;17.43;48.52
44044;BME280;29709;52.396;16.796;2023-05-23T00:27:32;101503.94;;;17.45;47.00
44044;BME280;29709;52.396;16.796;2023-05-23T00:30:45;101499.63;;;17.43;47.46
44044;BME280;29709;52.396;16.796;2023-05-23T00:33:58;101484.91;;;17.27;48.50
44044;BME280;29709;52.396;16.796;2023-05-23T00:37:11;101495.66;;;17.30;48.86
44044;BME280;29709;52.396;16.796;2023-05-23T00:40:26;101499.00;;;17.26;49.13
44044;BME280;29709;52.396;16.796;2023-05-23T00:43:40;101495.10;;;17.20;48.80
44044;BME280;29709;52.396;16.796;2023-05-23T00:46:55;101492.90;;;17.16;48.67
44044;BME280;29709;52.396;16.796;2023-05-23T00:50:13;101493.85;;;17.08;49.38
44044;BME280;29709;52.396;16.796;2023-05-23T00:53:27;101493.20;;;17.06;48.83
44044;BME280;29709;52.396;16.796;2023-05-23T00:56:40;101497.63;;;17.00;50.06
44044;BME280;29709;52.396;16.796;2023-05-23T00:59:55;101499.54;;;17.00;48.77
44044;BME280;29709;52.396;16.796;2023-05-23T01:03:09;101491.21;;;17.00;49.14
44044;BME280;29709;52.396;16.796;2023-05-23T01:06:30;101491.31;;;16.92;49.69
44044;BME280;29709;52.396;16.796;2023-05-23T01:09:45;101497.82;;;16.84;50.24
44044;BME280;29709;52.396;16.796;2023-05-23T01:16:34;101493.05;;;16.78;50.91
44044;BME280;29709;52.396;16.796;2023-05-23T01:23:23;101489.12;;;16.72;50.45
44044;BME280;29709;52.396;16.796;2023-05-23T01:30:02;101486.12;;;16.59;50.87
44044;BME280;29709;52.396;16.796;2023-05-23T01:33:19;101478.47;;;16.61;51.21
44044;BME280;29709;52.396;16.796;2023-05-23T01:36:33;101488.60;;;16.54;51.47
44044;BME280;29709;52.396;16.796;2023-05-23T01:39:49;101477.23;;;16.49;51.19
44044;BME280;29709;52.396;16.796;2023-05-23T01:43:03;101475.51;;;16.48;50.76
44044;BME280;29709;52.396;16.796;2023-05-23T01:46:16;101473.20;;;16.37;51.57
44044;BME280;29709;52.396;16.796;2023-05-23T01:49:31;101467.54;;;16.30;52.09
44044;BME280;29709;52.396;16.796;2023-05-23T01:52:46;101467.94;;;16.27;53.16
44044;BME280;29709;52.396;16.796;2023-05-23T01:56:00;101460.66;;;16.26;52.71
44044;BME280;29709;52.396;16.796;2023-05-23T01:59:15;101462.27;;;16.21;52.89
44044;BME280;29709;52.396;16.796;2023-05-23T02:02:28;101463.99;;;16.22;52.30
44044;BME280;29709;52.396;16.796;2023-05-23T02:05:42;101454.81;;;16.21;52.54
44044;BME280;29709;52.396;16.796;2023-05-23T02:08:55;101457.97;;;16.18;53.53
44044;BME280;29709;52.396;16.796;2023-05-23T02:12:08;101453.16;;;16.12;52.42
44044;BME280;29709;52.396;16.796;2023-05-23T02:15:22;101449.45;;;16.05;52.96
44044;BME280;29709;52.396;16.796;2023-05-23T02:18:36;101450.57;;;15.96;53.24
44044;BME280;29709;52.396;16.796;2023-05-23T02:21:51;101442.91;;;15.98;53.39
44044;BME280;29709;52.396;16.796;2023-05-23T02:25:05;101432.49;;;16.00;53.18
44044;BME280;29709;52.396;16.796;2023-05-23T02:28:18;101437.92;;;15.93;53.91
44044;BME280;29709;52.396;16.796;2023-05-23T02:31:32;101437.57;;;15.96;53.00
44044;BME280;29709;52.396;16.796;2023-05-23T02:34:46;101439.63;;;15.94;54.33
44044;BME280;29709;52.396;16.796;2023-05-23T02:38:02;101442.80;;;15.91;53.51
44044;BME280;29709;52.396;16.796;2023-05-23T02:41:15;101436.59;;;15.89;54.48
44044;BME280;29709;52.396;16.796;2023-05-23T02:44:29;101439.36;;;15.89;53.92
44044;BME280;29709;52.396;16.796;2023-05-23T02:47:42;101433.89;;;15.81;54.30
44044;BME280;29709;52.396;16.796;2023-05-23T02:50:55;101433.02;;;15.80;55.06
44044;BME280;29709;52.396;16.796;2023-05-23T02:54:08;101429.01;;;15.83;53.79
44044;BME280;29709;52.396;16.796;2023-05-23T02:57:22;101431.12;;;15.81;54.12
44044;BME280;29709;52.396;16.796;2023-05-23T03:00:37;101418.49;;;15.78;55.53
44044;BME280;29709;52.396;16.796;2023-05-23T03:03:51;101420.00;;;15.66;55.03
44044;BME280;29709;52.396;16.796;2023-05-23T03:07:05;101416.37;;;15.66;54.92
44044;BME280;29709;52.396;16.796;2023-05-23T03:10:18;101421.71;;;15.67;55.46
44044;BME280;29709;52.396;16.796;2023-05-23T03:13:31;101413.28;;;15.61;55.03
44044;BME280;29709;52.396;16.796;2023-05-23T03:16:44;101408.76;;;15.59;55.24
44044;BME280;29709;52.396;16.796;2023-05-23T03:19:57;101414.14;;;15.61;56.06
44044;BME280;29709;52.396;16.796;2023-05-23T03:23:11;101416.65;;;15.71;55.10
44044;BME280;29709;52.396;16.796;2023-05-23T03:26:24;101419.08;;;15.74;55.68
44044;BME280;29709;52.396;16.796;2023-05-23T03:29:37;101414.74;;;15.71;55.55
44044;BME280;29709;52.396;16.796;2023-05-23T03:32:50;101420.80;;;15.75;55.33
44044;BME280;29709;52.396;16.796;2023-05-23T03:36:05;101412.09;;;15.78;55.95
44044;BME280;29709;52.396;16.796;2023-05-23T03:39:18;101408.59;;;15.84;55.69
44044;BME280;29709;52.396;16.796;2023-05-23T03:42:32;101403.52;;;15.87;54.96
44044;BME280;29709;52.396;16.796;2023-05-23T03:45:45;101409.34;;;15.93;55.01
44044;BME280;29709;52.396;16.796;2023-05-23T03:48:59;101412.42;;;15.98;55.55
44044;BME280;29709;52.396;16.796;2023-05-23T03:52:12;101413.48;;;15.97;55.06
44044;BME280;29709;52.396;16.796;2023-05-23T03:55:25;101411.57;;;15.97;55.35
44044;BME280;29709;52.396;16.796;2023-05-23T03:58:38;101409.27;;;16.01;55.08
44044;BME280;29709;52.396;16.796;2023-05-23T04:01:51;101401.34;;;16.12;55.20
44044;BME280;29709;52.396;16.796;2023-05-23T04:05:05;101402.02;;;16.29;54.52
44044;BME280;29709;52.396;16.796;2023-05-23T04:08:18;101403.65;;;16.38;55.88
44044;BME280;29709;52.396;16.796;2023-05-23T04:11:34;101405.75;;;16.51;55.17
44044;BME280;29709;52.396;16.796;2023-05-23T04:14:47;101398.18;;;16.60;54.89
44044;BME280;29709;52.396;16.796;2023-05-23T04:18:01;101397.39;;;16.66;54.49
44044;BME280;29709;52.396;16.796;2023-05-23T04:21:15;101409.88;;;16.70;54.84
44044;BME280;29709;52.396;16.796;2023-05-23T04:24:28;101393.78;;;16.80;54.59
44044;BME280;29709;52.396;16.796;2023-05-23T04:27:41;101387.43;;;16.86;53.95
44044;BME280;29709;52.396;16.796;2023-05-23T04:30:55;101385.60;;;16.93;54.39
44044;BME280;29709;52.396;16.796;2023-05-23T04:34:10;101387.29;;;17.09;54.01
44044;BME280;29709;52.396;16.796;2023-05-23T04:37:23;101386.16;;;17.25;53.79
44044;BME280;29709;52.396;16.796;2023-05-23T04:40:37;101385.91;;;17.41;53.74
44044;BME280;29709;52.396;16.796;2023-05-23T04:43:50;101380.02;;;17.51;53.60
44044;BME280;29709;52.396;16.796;2023-05-23T04:47:06;101381.12;;;17.56;53.29
44044;BME280;29709;52.396;16.796;2023-05-23T04:50:21;101381.39;;;17.62;53.14
44044;BME280;29709;52.396;16.796;2023-05-23T04:53:35;101380.20;;;17.71;52.43
44044;BME280;29709;52.396;16.796;2023-05-23T04:56:50;101386.89;;;17.76;52.35
44044;BME280;29709;52.396;16.796;2023-05-23T05:00:04;101385.17;;;17.75;51.50
44044;BME280;29709;52.396;16.796;2023-05-23T05:03:24;101383.31;;;17.82;52.10
44044;BME280;29709;52.396;16.796;2023-05-23T05:06:39;101377.20;;;17.94;52.15
44044;BME280;29709;52.396;16.796;2023-05-23T05:09:53;101359.08;;;18.04;52.30
44044;BME280;29709;52.396;16.796;2023-05-23T05:13:06;101361.29;;;18.15;52.21
44044;BME280;29709;52.396;16.796;2023-05-23T05:16:19;101365.21;;;18.28;51.10
44044;BME280;29709;52.396;16.796;2023-05-23T05:19:33;101361.26;;;18.50;50.82
44044;BME280;29709;52.396;16.796;2023-05-23T05:22:55;101355.09;;;18.61;50.69
44044;BME280;29709;52.396;16.796;2023-05-23T05:26:11;101359.50;;;18.77;50.27
44044;BME280;29709;52.396;16.796;2023-05-23T05:29:24;101358.88;;;18.88;50.42
44044;BME280;29709;52.396;16.796;2023-05-23T05:32:38;101350.34;;;19.03;49.64
44044;BME280;29709;52.396;16.796;2023-05-23T05:35:51;101354.46;;;19.20;50.28
44044;BME280;29709;52.396;16.796;2023-05-23T05:39:04;101354.27;;;19.55;49.70
44044;BME280;29709;52.396;16.796;2023-05-23T05:42:19;101354.29;;;19.88;48.99
44044;BME280;29709;52.396;16.796;2023-05-23T05:45:32;101348.68;;;20.14;48.61
44044;BME280;29709;52.396;16.796;2023-05-23T05:48:46;101347.19;;;20.12;47.92
44044;BME280;29709;52.396;16.796;2023-05-23T05:51:59;101343.32;;;20.06;48.17
44044;BME280;29709;52.396;16.796;2023-05-23T05:55:13;101345.48;;;20.04;48.28
44044;BME280;29709;52.396;16.796;2023-05-23T05:58:28;101339.45;;;20.14;48.74
44044;BME280;29709;52.396;16.796;2023-05-23T06:01:41;101335.80;;;20.13;48.11
44044;BME280;29709;52.396;16.796;2023-05-23T06:04:56;101326.80;;;20.05;48.81
44044;BME280;29709;52.396;16.796;2023-05-23T06:08:09;101316.28;;;20.00;48.94
44044;BME280;29709;52.396;16.796;2023-05-23T06:11:22;101318.88;;;19.95;49.15
44044;BME280;29709;52.396;16.796;2023-05-23T06:14:36;101320.81;;;19.95;49.04
44044;BME280;29709;52.396;16.796;2023-05-23T06:17:50;101319.10;;;19.87;50.05
44044;BME280;29709;52.396;16.796;2023-05-23T06:21:04;101323.38;;;19.89;50.34
44044;BME280;29709;52.396;16.796;2023-05-23T06:24:17;101319.92;;;20.07;49.95
44044;BME280;29709;52.396;16.796;2023-05-23T06:27:30;101315.37;;;20.19;49.22
44044;BME280;29709;52.396;16.796;2023-05-23T06:30:43;101319.28;;;20.12;49.55
44044;BME280;29709;52.396;16.796;2023-05-23T06:33:56;101314.97;;;20.16;49.19
44044;BME280;29709;52.396;16.796;2023-05-23T06:37:09;101313.88;;;20.24;49.49
44044;BME280;29709;52.396;16.796;2023-05-23T06:40:23;101318.79;;;20.28;49.05
44044;BME280;29709;52.396;16.796;2023-05-23T06:43:36;101318.57;;;20.43;48.92
44044;BME280;29709;52.396;16.796;2023-05-23T06:46:49;101321.68;;;20.66;48.66
44044;BME280;29709;52.396;16.796;2023-05-23T06:50:02;101327.34;;;20.91;49.23
44044;BME280;29709;52.396;16.796;2023-05-23T06:53:16;101324.79;;;21.21;48.17
44044;BME280;29709;52.396;16.796;2023-05-23T06:56:30;101309.64;;;21.36;46.87
44044;BME280;29709;52.396;16.796;2023-05-23T06:59:43;101319.90;;;21.48;46.96
44044;BME280;29709;52.396;16.796;2023-05-23T07:02:56;101316.74;;;21.63;47.32
44044;BME280;29709;52.396;16.796;2023-05-23T07:06:15;101324.10;;;21.82;46.98
44044;BME280;29709;52.396;16.796;2023-05-23T07:09:28;101313.71;;;21.89;46.49
44044;BME280;29709;52.396;16.796;2023-05-23T07:12:41;101305.63;;;22.00;46.13
44044;BME280;29709;52.396;16.796;2023-05-23T07:15:55;101305.63;;;22.00;45.89
44044;BME280;29709;52.396;16.796;2023-05-23T07:19:08;101309.78;;;22.15;45.70
44044;BME280;29709;52.396;16.796;2023-05-23T07:22:21;101297.20;;;22.25;45.53
44044;BME280;29709;52.396;16.796;2023-05-23T07:25:34;101308.95;;;22.33;45.87
44044;BME280;29709;52.396;16.796;2023-05-23T07:28:48;101314.55;;;22.33;45.31
44044;BME280;29709;52.396;16.796;2023-05-23T07:32:03;101304.34;;;22.39;44.79
44044;BME280;29709;52.396;16.796;2023-05-23T07:35:16;101306.14;;;22.33;44.48
44044;BME280;29709;52.396;16.796;2023-05-23T07:38:29;101308.22;;;22.19;45.15
44044;BME280;29709;52.396;16.796;2023-05-23T07:41:42;101312.66;;;22.27;45.37
44044;BME280;29709;52.396;16.796;2023-05-23T07:44:56;101316.94;;;22.48;44.42
44044;BME280;29709;52.396;16.796;2023-05-23T07:48:09;101309.61;;;22.65;44.49
44044;BME280;29709;52.396;16.796;2023-05-23T07:51:24;101306.38;;;22.80;44.36
44044;BME280;29709;52.396;16.796;2023-05-23T07:54:37;101306.25;;;22.93;43.63
44044;BME280;29709;52.396;16.796;2023-05-23T07:57:50;101309.09;;;23.05;43.42
44044;BME280;29709;52.396;16.796;2023-05-23T08:01:06;101309.25;;;23.22;43.44
44044;BME280;29709;52.396;16.796;2023-05-23T08:04:19;101304.30;;;23.36;43.03
44044;BME280;29709;52.396;16.796;2023-05-23T08:07:33;101309.38;;;23.69;42.34
44044;BME280;29709;52.396;16.796;2023-05-23T08:10:46;101304.36;;;23.94;42.65
44044;BME280;29709;52.396;16.796;2023-05-23T08:14:00;101305.59;;;24.10;43.03
44044;BME280;29709;52.396;16.796;2023-05-23T08:17:13;101293.48;;;24.33;41.24
44044;BME280;29709;52.396;16.796;2023-05-23T08:20:27;101295.16;;;24.45;40.93
44044;BME280;29709;52.396;16.796;2023-05-23T08:23:43;101294.73;;;24.65;40.56
44044;BME280;29709;52.396;16.796;2023-05-23T08:28:13;101295.34;;;24.67;40.43
44044;BME280;29709;52.396;16.796;2023-05-23T08:31:32;101294.83;;;24.99;40.12
44044;BME280;29709;52.396;16.796;2023-05-23T08:34:45;101296.09;;;25.03;37.54
44044;BME280;29709;52.396;16.796;2023-05-23T08:37:58;101288.93;;;24.84;38.65
44044;BME280;29709;52.396;16.796;2023-05-23T08:41:22;101286.01;;;24.79;38.77
44044;BME280;29709;52.396;16.796;2023-05-23T08:44:36;101287.57;;;24.86;38.67
44044;BME280;29709;52.396;16.796;2023-05-23T08:47:50;101282.99;;;24.97;38.97
44044;BME280;29709;52.396;16.796;2023-05-23T08:51:06;101287.66;;;25.20;38.65
44044;BME280;29709;52.396;16.796;2023-05-23T08:54:21;101290.59;;;25.25;37.77
44044;BME280;29709;52.396;16.796;2023-05-23T08:57:35;101289.73;;;25.24;36.39
44044;BME280;29709;52.396;16.796;2023-05-23T09:00:50;101290.51;;;25.37;36.37
44044;BME280;29709;52.396;16.796;2023-05-23T09:04:05;101284.55;;;25.67;36.92
44044;BME280;29709;52.396;16.796;2023-05-23T09:07:19;101283.79;;;25.88;36.41
44044;BME280;29709;52.396;16.796;2023-05-23T09:10:32;101283.52;;;25.89;35.79
44044;BME280;29709;52.396;16.796;2023-05-23T09:13:47;101273.34;;;26.05;36.15
44044;BME280;29709;52.396;16.796;2023-05-23T09:17:01;101269.03;;;26.19;35.53
44044;BME280;29709;52.396;16.796;2023-05-23T09:20:16;101276.10;;;26.22;35.35
44044;BME280;29709;52.396;16.796;2023-05-23T09:23:33;101269.48;;;26.11;34.89
44044;BME280;29709;52.396;16.796;2023-05-23T09:26:47;101278.30;;;25.98;33.15
44044;BME280;29709;52.396;16.796;2023-05-23T09:30:07;101272.16;;;25.84;33.98
44044;BME280;29709;52.396;16.796;2023-05-23T09:33:21;101268.59;;;25.72;35.11
44044;BME280;29709;52.396;16.796;2023-05-23T09:36:34;101268.01;;;25.70;35.29
44044;BME280;29709;52.396;16.796;2023-05-23T09:39:48;101265.09;;;25.65;35.50
44044;BME280;29709;52.396;16.796;2023-05-23T09:43:03;101253.74;;;25.60;35.16
44044;BME280;29709;52.396;16.796;2023-05-23T09:46:18;101255.80;;;25.65;35.61
44044;BME280;29709;52.396;16.796;2023-05-23T09:49:31;101248.73;;;25.45;35.56
44044;BME280;29709;52.396;16.796;2023-05-23T09:52:45;101243.01;;;25.40;35.80
44044;BME280;29709;52.396;16.796;2023-05-23T09:56:01;101244.21;;;25.44;35.92
44044;BME280;29709;52.396;16.796;2023-05-23T09:59:15;101254.43;;;25.50;35.73
44044;BME280;29709;52.396;16.796;2023-05-23T10:06:10;101253.30;;;25.51;36.05
44044;BME280;29709;52.396;16.796;2023-05-23T10:09:27;101248.31;;;25.53;35.81
44044;BME280;29709;52.396;16.796;2023-05-23T10:12:49;101246.16;;;25.77;36.10
44044;BME280;29709;52.396;16.796;2023-05-23T10:16:14;101239.73;;;25.99;34.92
44044;BME280;29709;52.396;16.796;2023-05-23T10:19:42;101239.28;;;26.07;34.84
44044;BME280;29709;52.396;16.796;2023-05-23T10:23:02;101235.80;;;26.22;34.42
44044;BME280;29709;52.396;16.796;2023-05-23T10:26:17;101233.91;;;26.05;33.03
44044;BME280;29709;52.396;16.796;2023-05-23T10:29:31;101240.30;;;26.01;33.83
44044;BME280;29709;52.396;16.796;2023-05-23T10:32:48;101233.64;;;26.07;33.43
44044;BME280;29709;52.396;16.796;2023-05-23T10:36:08;101231.87;;;26.23;33.78
44044;BME280;29709;52.396;16.796;2023-05-23T10:39:33;101219.83;;;26.27;33.00
44044;BME280;29709;52.396;16.796;2023-05-23T10:43:00;101230.03;;;26.33;31.96
44044;BME280;29709;52.396;16.796;2023-05-23T10:46:14;101232.58;;;26.35;32.77
44044;BME280;29709;52.396;16.796;2023-05-23T10:52:53;101229.64;;;26.25;32.86
44044;BME280;29709;52.396;16.796;2023-05-23T10:56:09;101228.46;;;26.21;32.57
44044;BME280;29709;52.396;16.796;2023-05-23T10:59:26;101227.89;;;26.18;32.96
44044;BME280;29709;52.396;16.796;2023-05-23T11:09:34;101230.63;;;25.58;34.43
44044;BME280;29709;52.396;16.796;2023-05-23T11:12:47;101234.92;;;25.44;36.15
44044;BME280;29709;52.396;16.796;2023-05-23T11:19:27;101252.50;;;24.48;40.11
44044;BME280;29709;52.396;16.796;2023-05-23T11:22:52;101250.02;;;24.12;42.82
44044;BME280;29709;52.396;16.796;2023-05-23T11:26:03;101261.53;;;23.75;44.20
44044;BME280;29709;52.396;16.796;2023-05-23T11:29:18;101263.34;;;23.46;46.08
44044;BME280;29709;52.396;16.796;2023-05-23T11:32:31;101271.91;;;23.10;47.84
44044;BME280;29709;52.396;16.796;2023-05-23T11:35:46;101274.41;;;22.69;49.40
44044;BME280;29709;52.396;16.796;2023-05-23T11:39:03;101279.54;;;22.42;51.23
44044;BME280;29709;52.396;16.796;2023-05-23T11:42:16;101279.06;;;22.27;52.30
44044;BME280;29709;52.396;16.796;2023-05-23T11:45:30;101280.70;;;22.16;52.49
44044;BME280;29709;52.396;16.796;2023-05-23T11:48:45;101277.76;;;22.11;55.95
44044;BME280;29709;52.396;16.796;2023-05-23T11:51:58;101283.63;;;22.03;55.94
44044;BME280;29709;52.396;16.796;2023-05-23T11:55:13;101283.08;;;21.95;54.69
44044;BME280;29709;52.396;16.796;2023-05-23T11:58:38;101285.93;;;21.88;58.46
44044;BME280;29709;52.396;16.796;2023-05-23T12:01:47;101291.76;;;21.86;57.78
44044;BME280;29709;52.396;16.796;2023-05-23T12:05:06;101285.55;;;21.84;61.15
44044;BME280;29709;52.396;16.796;2023-05-23T12:08:20;101295.88;;;21.84;56.19
44044;BME280;29709;52.396;16.796;2023-05-23T12:11:34;101302.10;;;21.86;57.56
44044;BME280;29709;52.396;16.796;2023-05-23T12:14:47;101293.79;;;21.79;57.98
44044;BME280;29709;52.396;16.796;2023-05-23T12:18:00;101301.33;;;21.79;56.33
44044;BME280;29709;52.396;16.796;2023-05-23T12:21:13;101308.22;;;21.76;58.82
44044;BME280;29709;52.396;16.796;2023-05-23T12:24:26;101299.91;;;21.70;57.31
44044;BME280;29709;52.396;16.796;2023-05-23T12:27:40;101302.70;;;21.45;60.49
44044;BME280;29709;52.396;16.796;2023-05-23T12:30:57;101304.28;;;21.34;60.90
44044;BME280;29709;52.396;16.796;2023-05-23T12:34:11;101309.49;;;21.24;60.36
44044;BME280;29709;52.396;16.796;2023-05-23T12:37:25;101312.78;;;21.14;63.22
44044;BME280;29709;52.396;16.796;2023-05-23T12:40:40;101308.75;;;21.10;61.89
44044;BME280;29709;52.396;16.796;2023-05-23T12:43:55;101311.14;;;21.07;64.81
44044;BME280;29709;52.396;16.796;2023-05-23T12:47:08;101311.14;;;21.07;62.11
44044;BME280;29709;52.396;16.796;2023-05-23T12:50:22;101308.14;;;21.01;61.62
44044;BME280;29709;52.396;16.796;2023-05-23T12:53:35;101301.74;;;20.94;65.27
44044;BME280;29709;52.396;16.796;2023-05-23T12:56:49;101314.71;;;20.82;63.12
44044;BME280;29709;52.396;16.796;2023-05-23T13:00:02;101319.69;;;20.73;66.14
44044;BME280;29709;52.396;16.796;2023-05-23T13:03:17;101311.59;;;20.65;63.76
44044;BME280;29709;52.396;16.796;2023-05-23T13:06:30;101317.66;;;20.56;67.62
44044;BME280;29709;52.396;16.796;2023-05-23T13:09:43;101309.52;;;20.48;66.92
44044;BME280;29709;52.396;16.796;2023-05-23T13:12:56;101312.97;;;20.36;66.67
44044;BME280;29709;52.396;16.796;2023-05-23T13:16:09;101303.98;;;20.28;68.60
44044;BME280;29709;52.396;16.796;2023-05-23T13:19:23;101308.30;;;20.24;66.91
44044;BME280;29709;52.396;16.796;2023-05-23T13:22:36;101298.85;;;20.18;69.61
44044;BME280;29709;52.396;16.796;2023-05-23T13:25:49;101304.66;;;20.16;67.52
44044;BME280;29709;52.396;16.796;2023-05-23T13:29:04;101299.09;;;20.10;71.12
44044;BME280;29709;52.396;16.796;2023-05-23T13:32:17;101295.21;;;20.11;68.83
44044;BME280;29709;52.396;16.796;2023-05-23T13:35:31;101300.38;;;20.14;69.25
44044;BME280;29709;52.396;16.796;2023-05-23T13:38:44;101297.59;;;20.14;72.97
44044;BME280;29709;52.396;16.796;2023-05-23T13:41:57;101305.51;;;20.17;69.40
44044;BME280;29709;52.396;16.796;2023-05-23T13:45:10;101297.59;;;20.14;71.46
44044;BME280;29709;52.396;16.796;2023-05-23T13:48:23;101293.73;;;20.15;72.11
44044;BME280;29709;52.396;16.796;2023-05-23T13:51:37;101299.30;;;20.15;72.84
44044;BME280;29709;52.396;16.796;2023-05-23T13:54:50;101295.84;;;20.19;71.77
44044;BME280;29709;52.396;16.796;2023-05-23T13:58:03;101308.02;;;20.32;70.65
44044;BME280;29709;52.396;16.796;2023-05-23T14:01:16;101313.84;;;20.30;71.18
44044;BME280;29709;52.396;16.796;2023-05-23T14:04:31;101309.55;;;20.28;74.14
44044;BME280;29709;52.396;16.796;2023-05-23T14:07:44;101307.16;;;20.38;73.90
44044;BME280;29709;52.396;16.796;2023-05-23T14:10:59;101312.09;;;20.49;71.13
44044;BME280;29709;52.396;16.796;2023-05-23T14:14:12;101305.63;;;20.55;71.60
44044;BME280;29709;52.396;16.796;2023-05-23T14:17:26;101296.64;;;20.46;71.58
44044;BME280;29709;52.396;16.796;2023-05-23T14:20:39;101288.49;;;20.45;70.54
44044;BME280;29709;52.396;16.796;2023-05-23T14:23:53;101291.28;;;20.45;70.11
44044;BME280;29709;52.396;16.796;2023-05-23T14:27:06;101300.07;;;20.49;69.72
44044;BME280;29709;52.396;16.796;2023-05-23T14:30:19;101299.88;;;20.43;69.50
44044;BME280;29709;52.396;16.796;2023-05-23T14:33:32;101294.27;;;20.37;71.75
44044;BME280;29709;52.396;16.796;2023-05-23T14:36:46;101292.13;;;20.45;69.77
44044;BME280;29709;52.396;16.796;2023-05-23T14:39:59;101288.47;;;20.38;68.74
44044;BME280;29709;52.396;16.796;2023-05-23T14:43:13;101289.63;;;20.11;67.74
44044;BME280;29709;52.396;16.796;2023-05-23T14:46:26;101283.69;;;19.94;67.61
44044;BME280;29709;52.396;16.796;2023-05-23T14:49:40;101273.84;;;19.78;67.74
44044;BME280;29709;52.396;16.796;2023-05-23T14:52:53;101277.92;;;19.82;65.97
44044;BME280;29709;52.396;16.796;2023-05-23T14:56:06;101281.57;;;19.83;66.90
44044;BME280;29709;52.396;16.796;2023-05-23T14:59:19;101273.39;;;19.88;67.08
44044;BME280;29709;52.396;16.796;2023-05-23T15:02:33;101285.63;;;19.94;66.90
44044;BME280;29709;52.396;16.796;2023-05-23T15:05:46;101266.91;;;20.01;65.83
44044;BME280;29709;52.396;16.796;2023-05-23T15:08:59;101274.27;;;19.82;65.19
44044;BME280;29709;52.396;16.796;2023-05-23T15:12:14;101277.29;;;19.67;66.19
44044;BME280;29709;52.396;16.796;2023-05-23T15:15:28;101285.47;;;19.62;66.42
44044;BME280;29709;52.396;16.796;2023-05-23T15:18:49;101280.06;;;19.47;67.93
44044;BME280;29709;52.396;16.796;2023-05-23T15:22:03;101288.45;;;19.41;67.85
44044;BME280;29709;52.396;16.796;2023-05-23T15:25:17;101286.50;;;19.35;68.50
44044;BME280;29709;52.396;16.796;2023-05-23T15:28:30;101291.22;;;19.34;70.75
44044;BME280;29709;52.396;16.796;2023-05-23T15:31:43;101288.02;;;19.44;68.97
44044;BME280;29709;52.396;16.796;2023-05-23T15:34:57;101281.36;;;19.45;69.10
44044;BME280;29709;52.396;16.796;2023-05-23T15:38:10;101277.27;;;19.47;70.61
44044;BME280;29709;52.396;16.796;2023-05-23T15:41:23;101265.51;;;19.39;70.33
44044;BME280;29709;52.396;16.796;2023-05-23T15:44:36;101258.86;;;19.40;71.23
44044;BME280;29709;52.396;16.796;2023-05-23T15:47:49;101253.70;;;19.43;70.48
44044;BME280;29709;52.396;16.796;2023-05-23T15:51:02;101250.69;;;19.38;71.65
44044;BME280;29709;52.396;16.796;2023-05-23T15:54:16;101247.27;;;19.36;72.45
44044;BME280;29709;52.396;16.796;2023-05-23T15:57:29;101235.68;;;19.46;72.36
44044;BME280;29709;52.396;16.796;2023-05-23T16:00:42;101234.38;;;19.48;71.77
44044;BME280;29709;52.396;16.796;2023-05-23T16:03:55;101223.26;;;19.35;73.46
44044;BME280;29709;52.396;16.796;2023-05-23T16:07:08;101218.98;;;19.32;74.40
44044;BME280;29709;52.396;16.796;2023-05-23T16:10:21;101222.41;;;19.41;74.57
44044;BME280;29709;52.396;16.796;2023-05-23T16:13:37;101221.52;;;19.54;73.77
44044;BME280;29709;52.396;16.796;2023-05-23T16:16:50;101225.60;;;19.58;73.24
44044;BME280;29709;52.396;16.796;2023-05-23T16:20:03;101223.23;;;19.48;74.05
44044;BME280;29709;52.396;16.796;2023-05-23T16:23:17;101223.70;;;19.39;75.18
44044;BME280;29709;52.396;16.796;2023-05-23T16:26:30;101227.97;;;19.35;75.29
44044;BME280;29709;52.396;16.796;2023-05-23T16:29:44;101232.28;;;19.30;75.99
44044;BME280;29709;52.396;16.796;2023-05-23T16:32:57;101226.90;;;19.36;75.64
44044;BME280;29709;52.396;16.796;2023-05-23T16:36:10;101214.70;;;19.30;75.69
44044;BME280;29709;52.396;16.796;2023-05-23T16:39:23;101214.70;;;19.30;76.42
44044;BME280;29709;52.396;16.796;2023-05-23T16:42:37;101205.68;;;19.41;76.62
44044;BME280;29709;52.396;16.796;2023-05-23T16:45:52;101199.21;;;19.54;74.66
44044;BME280;29709;52.396;16.796;2023-05-23T16:49:05;101207.58;;;19.54;74.40
44044;BME280;29709;52.396;16.796;2023-05-23T16:52:18;101210.40;;;19.60;74.27
44044;BME280;29709;52.396;16.796;2023-05-23T16:55:31;101217.69;;;19.62;74.28
44044;BME280;29709;52.396;16.796;2023-05-23T16:58:44;101215.30;;;19.65;74.02
44044;BME280;29709;52.396;16.796;2023-05-23T17:01:58;101214.45;;;19.58;74.75
44044;BME280;29709;52.396;16.796;2023-05-23T17:05:11;101220.26;;;19.63;75.02
44044;BME280;29709;52.396;16.796;2023-05-23T17:08:25;101220.44;;;19.75;75.16
44044;BME280;29709;52.396;16.796;2023-05-23T17:11:38;101223.40;;;19.86;73.86